createdAt,value
2019-05-06T00:01:53.986Z,83.66
2019-05-06T00:04:24.730Z,83.66
2019-05-06T00:06:54.807Z,83.76
2019-05-06T00:09:24.122Z,83.93
2019-05-06T00:11:54.277Z,84.22
2019-05-06T00:14:23.669Z,84.54
2019-05-06T00:16:54.554Z,84.44
2019-05-06T00:19:24.674Z,85.09
2019-05-06T00:21:54.082Z,85.53
2019-05-06T00:24:25.099Z,85.33
2019-05-06T00:27:13.996Z,85.27
2019-05-06T00:29:43.864Z,85.25
2019-05-06T00:32:14.918Z,85.46
2019-05-06T00:34:43.685Z,85.48
2019-05-06T00:37:14.473Z,85.89
2019-05-06T00:40:04.513Z,86.67
2019-05-06T00:42:34.931Z,86.68
2019-05-06T00:45:04.627Z,86.53
2019-05-06T00:47:33.968Z,86.83
2019-05-06T00:50:04.247Z,86.73
2019-05-06T00:52:33.999Z,86.67
2019-05-06T00:55:04.162Z,86.73
2019-05-06T00:57:45.210Z,86.65
2019-05-06T01:00:16.851Z,86.69
2019-05-06T01:02:45.420Z,86.55
2019-05-06T01:05:14.484Z,86.41
2019-05-06T01:07:44.107Z,86.38
2019-05-06T01:10:14.298Z,86.44
2019-05-06T01:12:44.665Z,86.41
2019-05-06T01:15:18.376Z,86.56
2019-05-06T01:17:46.891Z,86.61
2019-05-06T01:20:15.755Z,86.68
2019-05-06T01:22:44.361Z,86.79
2019-05-06T01:25:14.224Z,87.05
2019-05-06T01:27:44.434Z,86.96
2019-05-06T01:30:13.814Z,87.16
2019-05-06T01:32:43.584Z,87.32
2019-05-06T01:35:14.100Z,87.30
2019-05-06T01:37:44.431Z,87.42
2019-05-06T01:40:27.047Z,87.60
2019-05-06T01:43:00.216Z,87.99
2019-05-06T01:45:28.823Z,88.08
2019-05-06T01:47:57.398Z,88.20
2019-05-06T01:50:25.978Z,88.16
2019-05-06T01:52:54.635Z,88.27
2019-05-06T01:55:23.888Z,88.35
2019-05-06T01:57:54.531Z,88.38
2019-05-06T02:00:23.687Z,88.21
2019-05-06T02:02:54.595Z,88.10
2019-05-06T02:05:24.233Z,88.04
2019-05-06T02:07:54.891Z,87.98
2019-05-06T02:10:23.859Z,87.94
2019-05-06T02:12:54.116Z,87.90
2019-05-06T02:15:23.884Z,87.93
2019-05-06T02:17:54.991Z,87.95
2019-05-06T02:20:24.653Z,88.10
2019-05-06T02:22:54.914Z,88.07
2019-05-06T02:25:25.121Z,88.06
2019-05-06T02:27:54.246Z,88.06
2019-05-06T02:30:36.348Z,87.91
2019-05-06T02:33:11.279Z,87.91
2019-05-06T02:35:45.425Z,87.86
2019-05-06T02:38:32.654Z,87.85
2019-05-06T02:40:55.580Z,87.81
2019-05-06T02:43:24.140Z,88.02
2019-05-06T02:45:53.232Z,88.21
2019-05-06T02:48:29.670Z,88.36
2019-05-06T02:50:59.877Z,88.38
2019-05-06T02:53:28.551Z,88.82
2019-05-06T02:55:57.147Z,88.88
2019-05-06T02:58:25.721Z,88.88
2019-05-06T03:00:54.301Z,88.81
2019-05-06T03:03:23.378Z,88.99
2019-05-06T03:05:53.205Z,89.01
2019-05-06T03:08:23.657Z,88.85
2019-05-06T03:10:53.564Z,89.02
2019-05-06T03:13:23.609Z,89.15
2019-05-06T03:15:54.076Z,89.47
2019-05-06T03:18:23.586Z,89.80
2019-05-06T03:20:54.099Z,90.11
2019-05-06T03:23:24.327Z,90.30
2019-05-06T03:25:53.413Z,90.48
2019-05-06T03:28:22.620Z,90.73
2019-05-06T03:30:55.903Z,90.83
2019-05-06T03:33:44.607Z,90.95
2019-05-06T03:36:06.113Z,90.94
2019-05-06T03:38:22.999Z,90.97
2019-05-06T03:40:53.770Z,90.80
2019-05-06T03:43:23.263Z,90.95
2019-05-06T03:45:59.806Z,91.08
2019-05-06T03:48:33.086Z,91.28
2019-05-06T03:51:00.344Z,91.48
2019-05-06T03:53:33.398Z,91.16
2019-05-06T03:56:03.344Z,91.09
2019-05-06T03:58:34.705Z,91.32
2019-05-06T04:01:03.832Z,91.21
2019-05-06T04:03:46.534Z,91.18
2019-05-06T04:06:05.605Z,91.22
2019-05-06T04:08:35.173Z,91.21
2019-05-06T04:11:03.857Z,91.35
2019-05-06T04:13:33.363Z,91.50
2019-05-06T04:16:04.075Z,91.37
2019-05-06T04:18:34.428Z,91.41
2019-05-06T04:21:23.691Z,91.65
2019-05-06T04:24:04.845Z,91.73
2019-05-06T04:26:35.402Z,91.30
2019-05-06T04:29:04.245Z,91.51
2019-05-06T04:31:33.693Z,91.52
2019-05-06T04:34:12.890Z,91.40
2019-05-06T04:36:33.833Z,91.68
2019-05-06T04:39:04.117Z,91.56
2019-05-06T04:41:34.066Z,91.96
2019-05-06T04:44:03.427Z,91.90
2019-05-06T04:46:34.867Z,92.21
2019-05-06T04:49:04.000Z,92.07
2019-05-06T04:51:37.010Z,92.01
2019-05-06T04:54:04.843Z,92.04
2019-05-06T04:56:34.516Z,91.96
2019-05-06T04:59:06.282Z,91.74
2019-05-06T05:01:34.357Z,91.39
2019-05-06T05:04:03.714Z,91.34
2019-05-06T05:06:32.935Z,91.39
2019-05-06T05:09:02.781Z,91.45
2019-05-06T05:11:36.455Z,91.59
2019-05-06T05:14:06.673Z,91.17
2019-05-06T05:16:39.608Z,90.91
2019-05-06T05:19:12.824Z,90.71
2019-05-06T05:21:42.874Z,90.84
2019-05-06T05:24:12.053Z,90.97
2019-05-06T05:26:45.108Z,90.72
2019-05-06T05:29:12.391Z,90.77
2019-05-06T05:31:43.543Z,90.55
2019-05-06T05:34:12.744Z,90.34
2019-05-06T05:36:42.622Z,90.04
2019-05-06T05:39:12.517Z,89.92
2019-05-06T05:41:42.901Z,89.88
2019-05-06T05:44:13.507Z,89.79
2019-05-06T05:46:43.824Z,89.96
2019-05-06T05:49:24.602Z,90.08
2019-05-06T05:51:53.654Z,89.76
2019-05-06T05:54:23.125Z,89.17
2019-05-06T05:56:52.927Z,89.02
2019-05-06T05:59:23.152Z,88.49
2019-05-06T06:01:53.082Z,88.36
2019-05-06T06:04:22.490Z,88.33
2019-05-06T06:06:51.999Z,88.36
2019-05-06T06:09:22.620Z,88.03
2019-05-06T06:11:53.676Z,87.04
2019-05-06T06:14:43.724Z,86.52
2019-05-06T06:17:26.245Z,86.52
2019-05-06T06:19:59.671Z,86.51
2019-05-06T06:22:30.018Z,86.41
2019-05-06T06:24:58.659Z,86.13
2019-05-06T06:27:28.862Z,85.90
2019-05-06T06:29:57.537Z,85.33
2019-05-06T06:32:27.756Z,85.21
2019-05-06T06:35:11.131Z,85.12
2019-05-06T06:37:38.959Z,84.60
2019-05-06T06:40:10.073Z,84.58
2019-05-06T06:42:38.662Z,83.84
2019-05-06T06:45:07.711Z,83.50
2019-05-06T06:47:36.486Z,82.64
2019-05-06T06:50:05.357Z,81.72
2019-05-06T06:52:33.923Z,81.79
2019-05-06T06:55:02.735Z,80.80
2019-05-06T06:57:38.678Z,79.07
2019-05-06T07:00:22.279Z,77.74
2019-05-06T07:03:04.654Z,76.68
2019-05-06T07:05:34.874Z,75.75
2019-05-06T07:08:03.619Z,74.72
2019-05-06T07:10:43.997Z,74.49
2019-05-06T07:13:13.738Z,74.10
2019-05-06T07:15:42.749Z,73.95
2019-05-06T07:18:13.517Z,73.10
2019-05-06T07:20:52.672Z,73.20
2019-05-06T07:23:32.787Z,72.67
2019-05-06T07:26:03.043Z,72.86
2019-05-06T07:28:32.678Z,72.57
2019-05-06T07:31:17.578Z,71.95
2019-05-06T07:33:33.586Z,69.75
2019-05-06T07:36:02.339Z,67.20
2019-05-06T07:38:32.631Z,65.64
2019-05-06T07:41:04.544Z,64.09
2019-05-06T07:43:35.006Z,61.18
2019-05-06T07:46:08.887Z,59.55
2019-05-06T07:48:37.489Z,57.73
2019-05-06T07:51:06.072Z,57.64
2019-05-06T07:53:34.695Z,56.58
2019-05-06T07:56:03.742Z,56.11
2019-05-06T07:58:32.543Z,56.20
2019-05-06T08:01:02.605Z,55.52
2019-05-06T08:03:32.981Z,54.06
2019-05-06T08:06:02.742Z,54.17
2019-05-06T08:08:33.657Z,54.60
2019-05-06T08:11:02.716Z,53.67
2019-05-06T08:13:32.301Z,54.25
2019-05-06T08:16:02.269Z,54.65
2019-05-06T08:18:32.982Z,53.00
2019-05-06T08:21:02.926Z,52.78
2019-05-06T08:23:35.902Z,53.12
2019-05-06T08:26:12.546Z,54.37
2019-05-06T08:28:41.036Z,55.69
2019-05-06T08:31:05.362Z,54.65
2019-05-06T08:33:33.999Z,54.48
2019-05-06T08:36:11.476Z,54.35
2019-05-06T08:38:53.204Z,53.47
2019-05-06T08:41:22.749Z,52.88
2019-05-06T08:43:52.844Z,52.22
2019-05-06T08:46:23.488Z,50.65
2019-05-06T08:48:52.613Z,49.19
2019-05-06T08:51:26.014Z,48.35
2019-05-06T08:53:56.253Z,46.74
2019-05-06T08:56:25.025Z,47.01
2019-05-06T08:58:53.590Z,47.03
2019-05-06T09:01:23.833Z,46.08
2019-05-06T09:04:06.408Z,45.40
2019-05-06T09:06:29.724Z,44.93
2019-05-06T09:08:56.577Z,45.67
2019-05-06T09:11:25.692Z,44.27
2019-05-06T09:13:53.779Z,44.87
2019-05-06T09:16:22.538Z,44.27
2019-05-06T09:18:53.241Z,44.10
2019-05-06T09:21:22.625Z,43.86
2019-05-06T09:23:53.191Z,42.80
2019-05-06T09:26:23.286Z,43.78
2019-05-06T09:28:53.574Z,43.05
2019-05-06T09:31:23.846Z,43.94
2019-05-06T09:33:57.149Z,44.11
2019-05-06T09:36:39.822Z,44.15
2019-05-06T09:38:56.060Z,43.83
2019-05-06T09:41:24.634Z,44.23
2019-05-06T09:43:53.214Z,44.05
2019-05-06T09:46:23.069Z,43.29
2019-05-06T09:49:09.624Z,44.40
2019-05-06T09:51:38.287Z,43.14
2019-05-06T09:54:24.798Z,42.94
2019-05-06T09:56:58.386Z,42.49
2019-05-06T09:59:27.083Z,44.11
2019-05-06T10:01:55.720Z,43.87
2019-05-06T10:04:24.314Z,43.95
2019-05-06T10:06:57.195Z,44.32
2019-05-06T10:09:24.946Z,43.58
2019-05-06T10:11:53.755Z,44.98
2019-05-06T10:14:23.407Z,46.29
2019-05-06T10:16:52.559Z,47.96
2019-05-06T10:19:22.575Z,47.17
2019-05-06T10:21:53.038Z,47.43
2019-05-06T10:24:21.892Z,46.66
2019-05-06T10:26:52.453Z,45.90
2019-05-06T10:29:25.434Z,45.19
2019-05-06T10:31:58.733Z,44.27
2019-05-06T10:34:27.315Z,44.17
2019-05-06T10:37:12.718Z,44.42
2019-05-06T10:39:35.698Z,45.26
2019-05-06T10:42:13.463Z,44.90
2019-05-06T10:44:48.023Z,45.72
2019-05-06T10:47:16.655Z,45.52
2019-05-06T10:49:45.217Z,44.09
2019-05-06T10:52:15.422Z,43.63
2019-05-06T10:54:44.104Z,44.95
2019-05-06T10:57:14.435Z,45.89
2019-05-06T10:59:43.013Z,45.37
2019-05-06T11:02:29.410Z,47.33
2019-05-06T11:04:58.075Z,46.89
2019-05-06T11:07:31.405Z,47.91
2019-05-06T11:09:56.927Z,48.39
2019-05-06T11:12:25.503Z,48.99
2019-05-06T11:14:55.748Z,49.85
2019-05-06T11:17:24.552Z,50.81
2019-05-06T11:19:53.374Z,52.06
2019-05-06T11:22:24.637Z,52.60
2019-05-06T11:24:52.341Z,52.21
2019-05-06T11:27:28.762Z,52.86
2019-05-06T11:29:53.147Z,53.45
2019-05-06T11:32:41.174Z,53.64
2019-05-06T11:35:16.183Z,54.47
2019-05-06T11:37:51.959Z,53.21
2019-05-06T11:40:19.768Z,53.42
2019-05-06T11:42:48.282Z,53.96
2019-05-06T11:45:16.973Z,53.33
2019-05-06T11:47:45.599Z,52.75
2019-05-06T11:50:14.549Z,52.32
2019-05-06T11:52:43.619Z,51.75
2019-05-06T11:55:27.543Z,51.44
2019-05-06T11:57:44.874Z,52.55
2019-05-06T12:00:15.586Z,52.91
2019-05-06T12:02:48.013Z,53.37
2019-05-06T12:05:14.973Z,52.75
2019-05-06T12:08:00.397Z,52.87
2019-05-06T12:10:14.186Z,53.68
2019-05-06T12:12:42.765Z,53.75
2019-05-06T12:15:12.552Z,54.74
2019-05-06T12:17:42.207Z,55.41
2019-05-06T12:20:13.142Z,56.17
2019-05-06T12:22:42.447Z,56.73
2019-05-06T12:25:15.096Z,56.19
2019-05-06T12:27:44.624Z,56.75
2019-05-06T12:30:23.176Z,56.43
2019-05-06T12:33:03.199Z,57.05
2019-05-06T12:35:32.865Z,57.41
2019-05-06T12:38:06.804Z,57.53
2019-05-06T12:40:33.399Z,57.81
2019-05-06T12:43:22.510Z,58.29
2019-05-06T12:45:53.103Z,59.18
2019-05-06T12:48:23.511Z,58.76
2019-05-06T12:50:52.547Z,58.57
2019-05-06T12:53:23.150Z,58.92
2019-05-06T12:55:52.058Z,58.66
2019-05-06T12:58:23.251Z,56.69
2019-05-06T13:00:53.968Z,55.92
2019-05-06T13:03:23.433Z,55.70
2019-05-06T13:05:52.204Z,53.22
2019-05-06T13:08:27.364Z,52.31
2019-05-06T13:10:52.592Z,53.28
2019-05-06T13:13:22.466Z,51.26
2019-05-06T13:15:52.790Z,50.39
2019-05-06T13:18:23.177Z,52.00
2019-05-06T13:20:52.791Z,50.65
2019-05-06T13:23:38.228Z,50.00
2019-05-06T13:26:06.835Z,49.35
2019-05-06T13:28:37.105Z,49.85
2019-05-06T13:31:17.313Z,49.66
2019-05-06T13:33:47.292Z,48.19
2019-05-06T13:36:16.076Z,48.79
2019-05-06T13:38:44.688Z,49.81
2019-05-06T13:41:13.268Z,49.45
2019-05-06T13:43:43.772Z,49.35
2019-05-06T13:46:17.006Z,49.86
2019-05-06T13:49:02.917Z,49.10
2019-05-06T13:51:45.826Z,49.85
2019-05-06T13:54:16.101Z,50.14
2019-05-06T13:56:44.894Z,50.39
2019-05-06T13:59:13.624Z,50.20
2019-05-06T14:01:44.332Z,50.45
2019-05-06T14:04:14.540Z,49.53
2019-05-06T14:06:43.432Z,49.23
2019-05-06T14:09:27.945Z,49.82
2019-05-06T14:11:42.522Z,51.28
2019-05-06T14:14:12.557Z,50.46
2019-05-06T14:16:42.662Z,50.99
2019-05-06T14:19:13.173Z,50.25
2019-05-06T14:21:43.172Z,50.58
2019-05-06T14:24:13.220Z,51.84
2019-05-06T14:26:58.195Z,51.98
2019-05-06T14:29:33.959Z,52.41
2019-05-06T14:32:02.903Z,52.74
2019-05-06T14:34:32.440Z,52.91
2019-05-06T14:37:01.416Z,52.41
2019-05-06T14:39:49.150Z,54.07
2019-05-06T14:42:04.754Z,53.45
2019-05-06T14:44:33.325Z,53.62
2019-05-06T14:47:06.379Z,54.53
2019-05-06T14:49:34.960Z,53.67
2019-05-06T14:52:03.622Z,54.07
2019-05-06T14:54:33.198Z,53.93
2019-05-06T14:57:06.534Z,54.38
2019-05-06T14:59:35.253Z,55.54
2019-05-06T15:02:03.840Z,54.60
2019-05-06T15:04:32.735Z,54.48
2019-05-06T15:07:02.120Z,53.59
2019-05-06T15:09:32.912Z,55.04
2019-05-06T15:12:02.366Z,53.91
2019-05-06T15:14:33.075Z,54.40
2019-05-06T15:17:02.253Z,54.56
2019-05-06T15:19:31.072Z,54.99
2019-05-06T15:21:59.676Z,55.41
2019-05-06T15:24:28.283Z,56.02
2019-05-06T15:26:56.859Z,56.44
2019-05-06T15:29:25.468Z,57.54
2019-05-06T15:31:55.735Z,57.65
2019-05-06T15:34:25.979Z,57.96
2019-05-06T15:36:56.169Z,58.53
2019-05-06T15:39:39.264Z,58.63
2019-05-06T15:42:07.889Z,58.66
2019-05-06T15:44:36.697Z,59.36
2019-05-06T15:47:05.300Z,59.16
2019-05-06T15:49:33.880Z,59.15
2019-05-06T15:52:03.612Z,59.22
2019-05-06T15:54:32.404Z,58.80
2019-05-06T15:57:00.889Z,58.94
2019-05-06T15:59:33.296Z,58.83
2019-05-06T16:02:01.961Z,58.72
2019-05-06T16:04:32.505Z,57.57
2019-05-06T16:07:02.863Z,57.20
2019-05-06T16:09:32.824Z,57.39
2019-05-06T16:12:03.107Z,58.26
2019-05-06T16:14:34.107Z,58.86
2019-05-06T16:17:02.078Z,59.30
2019-05-06T16:19:33.069Z,58.55
2019-05-06T16:22:03.922Z,58.41
2019-05-06T16:24:35.184Z,58.82
2019-05-06T16:27:03.537Z,59.11
2019-05-06T16:29:37.668Z,58.64
2019-05-06T16:32:09.998Z,59.44
2019-05-06T16:34:38.568Z,60.45
2019-05-06T16:37:07.176Z,60.23
2019-05-06T16:39:35.759Z,61.24
2019-05-06T16:42:04.355Z,61.59
2019-05-06T16:44:32.932Z,61.88
2019-05-06T16:47:02.948Z,62.61
2019-05-06T16:49:33.156Z,61.67
2019-05-06T16:52:02.662Z,61.59
2019-05-06T16:54:34.576Z,61.26
2019-05-06T16:57:15.980Z,61.81
2019-05-06T16:59:44.587Z,61.17
2019-05-06T17:02:14.963Z,61.31
2019-05-06T17:04:45.173Z,60.83
2019-05-06T17:07:13.776Z,61.42
2019-05-06T17:09:42.982Z,61.27
2019-05-06T17:12:12.786Z,61.11
2019-05-06T17:14:42.856Z,60.84
2019-05-06T17:17:11.548Z,60.93
2019-05-06T17:19:42.048Z,61.13
2019-05-06T17:22:12.353Z,61.16
2019-05-06T17:24:42.212Z,61.37
2019-05-06T17:27:12.071Z,61.28
2019-05-06T17:29:48.368Z,61.35
2019-05-06T17:32:32.829Z,61.79
2019-05-06T17:35:02.613Z,61.76
2019-05-06T17:37:52.675Z,62.12
2019-05-06T17:40:23.147Z,62.40
2019-05-06T17:42:53.305Z,62.59
2019-05-06T17:45:40.251Z,62.85
2019-05-06T17:48:12.690Z,63.16
2019-05-06T17:50:42.064Z,63.60
2019-05-06T17:53:12.294Z,63.56
2019-05-06T17:55:43.145Z,63.92
2019-05-06T17:58:12.970Z,64.43
2019-05-06T18:00:42.904Z,64.57
2019-05-06T18:03:11.771Z,64.24
2019-05-06T18:05:42.185Z,64.57
2019-05-06T18:08:12.780Z,64.53
2019-05-06T18:10:42.663Z,64.62
2019-05-06T18:13:12.562Z,64.95
2019-05-06T18:15:43.066Z,65.20
2019-05-06T18:18:13.008Z,65.22
2019-05-06T18:20:42.723Z,65.42
2019-05-06T18:23:12.899Z,65.37
2019-05-06T18:25:43.031Z,65.23
2019-05-06T18:28:12.369Z,65.48
2019-05-06T18:30:41.433Z,65.27
2019-05-06T18:33:10.120Z,65.54
2019-05-06T18:35:38.905Z,65.49
2019-05-06T18:38:07.803Z,65.67
2019-05-06T18:40:36.696Z,65.63
2019-05-06T18:43:06.116Z,65.68
2019-05-06T18:45:36.157Z,65.95
2019-05-06T18:48:05.397Z,66.00
2019-05-06T18:50:34.013Z,66.18
2019-05-06T18:53:03.278Z,66.33
2019-05-06T18:55:33.322Z,66.82
2019-05-06T18:58:02.820Z,66.97
2019-05-06T19:00:32.094Z,67.48
2019-05-06T19:03:02.647Z,67.94
2019-05-06T19:05:42.721Z,68.35
2019-05-06T19:08:12.730Z,68.85
2019-05-06T19:10:42.461Z,69.02
2019-05-06T19:13:12.649Z,69.42
2019-05-06T19:15:41.561Z,69.98
2019-05-06T19:18:12.803Z,70.48
2019-05-06T19:20:42.467Z,70.81
2019-05-06T19:23:13.054Z,71.26
2019-05-06T19:25:42.863Z,71.60
2019-05-06T19:28:14.200Z,72.03
2019-05-06T19:30:43.341Z,72.34
2019-05-06T19:33:12.418Z,72.64
2019-05-06T19:35:42.828Z,73.02
2019-05-06T19:38:12.486Z,73.29
2019-05-06T19:40:41.429Z,73.60
2019-05-06T19:43:12.266Z,73.83
2019-05-06T19:45:42.265Z,74.01
2019-05-06T19:48:13.381Z,74.29
2019-05-06T19:50:42.586Z,74.71
2019-05-06T19:53:12.424Z,74.76
2019-05-06T19:55:45.433Z,75.20
2019-05-06T19:58:12.986Z,75.24
2019-05-06T20:00:42.052Z,75.35
2019-05-06T20:03:12.348Z,75.48
2019-05-06T20:05:55.053Z,75.64
2019-05-06T20:08:28.808Z,75.71
2019-05-06T20:10:59.303Z,75.59
2019-05-06T20:13:27.988Z,75.71
2019-05-06T20:15:56.797Z,75.90
2019-05-06T20:18:25.692Z,76.04
2019-05-06T20:20:54.947Z,76.02
2019-05-06T20:23:24.495Z,76.01
2019-05-06T20:25:53.256Z,76.29
2019-05-06T20:28:22.846Z,76.51
2019-05-06T20:30:52.881Z,76.45
2019-05-06T20:33:22.079Z,76.69
2019-05-06T20:35:52.551Z,78.07
2019-05-06T20:38:23.255Z,79.34
2019-05-06T20:40:51.627Z,80.81
2019-05-06T20:43:23.772Z,81.62
2019-05-06T20:45:52.195Z,82.36
2019-05-06T20:48:23.326Z,82.96
2019-05-06T20:50:52.389Z,83.53
2019-05-06T20:53:22.621Z,84.30
2019-05-06T20:55:53.203Z,85.03
2019-05-06T20:58:22.942Z,85.63
2019-05-06T21:00:52.224Z,86.26
2019-05-06T21:03:22.202Z,86.66
2019-05-06T21:05:50.967Z,87.54
2019-05-06T21:08:21.944Z,87.13
2019-05-06T21:10:52.715Z,87.28
2019-05-06T21:13:29.562Z,87.67
2019-05-06T21:15:50.568Z,88.05
2019-05-06T21:18:19.153Z,88.59
2019-05-06T21:20:47.728Z,89.02
2019-05-06T21:23:16.305Z,89.59
2019-05-06T21:25:44.884Z,88.99
2019-05-06T21:28:13.455Z,88.98
2019-05-06T21:30:42.928Z,89.02
2019-05-06T21:33:12.425Z,90.09
2019-05-06T21:35:42.405Z,90.17
2019-05-06T21:38:12.108Z,90.08
2019-05-06T21:40:43.119Z,90.17
2019-05-06T21:43:13.033Z,90.66
2019-05-06T21:45:42.501Z,91.05
2019-05-06T21:48:13.391Z,91.54
2019-05-06T21:50:42.632Z,92.29
2019-05-06T21:53:14.456Z,91.63
2019-05-06T21:55:41.728Z,91.93
2019-05-06T21:58:12.427Z,91.87
2019-05-06T22:00:43.620Z,91.55
2019-05-06T22:03:13.363Z,91.36
2019-05-06T22:05:42.242Z,91.61
2019-05-06T22:08:12.886Z,92.01
2019-05-06T22:10:42.213Z,92.25
2019-05-06T22:13:14.327Z,92.65
2019-05-06T22:15:42.093Z,91.72
2019-05-06T22:18:12.497Z,91.71
2019-05-06T22:20:59.389Z,91.79
2019-05-06T22:23:29.605Z,91.89
2019-05-06T22:26:10.855Z,91.55
2019-05-06T22:28:28.510Z,91.89
2019-05-06T22:30:57.084Z,92.25
2019-05-06T22:33:25.638Z,91.97
2019-05-06T22:35:57.182Z,91.74
2019-05-06T22:38:25.681Z,91.85
2019-05-06T22:40:54.254Z,91.75
2019-05-06T22:43:22.831Z,91.73
2019-05-06T22:45:53.301Z,92.22
2019-05-06T22:48:22.267Z,92.28
2019-05-06T22:50:52.927Z,92.52
2019-05-06T22:53:22.167Z,92.33
2019-05-06T22:55:51.960Z,93.07
2019-05-06T22:58:22.657Z,92.90
2019-05-06T23:00:53.746Z,93.07
2019-05-06T23:03:24.180Z,93.11
2019-05-06T23:05:52.779Z,92.90
2019-05-06T23:08:21.412Z,93.28
2019-05-06T23:10:50.166Z,93.71
2019-05-06T23:13:18.741Z,93.53
2019-05-06T23:15:47.333Z,93.58
2019-05-06T23:18:15.900Z,93.42
2019-05-06T23:20:44.510Z,93.43
2019-05-06T23:23:13.087Z,93.55
2019-05-06T23:25:43.566Z,93.64
2019-05-06T23:28:12.017Z,93.82
2019-05-06T23:30:42.779Z,94.13
2019-05-06T23:33:11.770Z,94.53
2019-05-06T23:35:43.713Z,94.96
2019-05-06T23:38:47.880Z,94.61
2019-05-06T23:41:52.940Z,94.51
2019-05-06T23:44:57.664Z,94.31
2019-05-06T23:48:02.664Z,94.10
2019-05-06T23:51:07.597Z,93.95
2019-05-06T23:54:12.772Z,93.57
2019-05-06T23:56:45.882Z,93.48
2019-05-06T23:59:18.637Z,93.65
